sensor_id;sensor_type;location;lat;lon;timestamp;P1;P2;P0
73973;PMS5003;62336;-26.094;27.994;2023-04-15T00:00:14;6;5;
73973;PMS5003;62336;-26.094;27.994;2023-04-15T00:02:39;5;5;
73973;PMS5003;62336;-26.094;27.994;2023-04-15T00:05:04;4;4;
73973;PMS5003;62336;-26.094;27.994;2023-04-15T00:07:29;4;4;
73973;PMS5003;62336;-26.094;27.994;2023-04-15T00:09:54;4;4;
73973;PMS5003;62336;-26.094;27.994;2023-04-15T00:12:19;3;3;
73973;PMS5003;62336;-26.094;27.994;2023-04-15T00:14:44;4;4;
73973;PMS5003;62336;-26.094;27.994;2023-04-15T00:17:10;3;3;
73973;PMS5003;62336;-26.094;27.994;2023-04-15T00:19:35;4;4;
73973;PMS5003;62336;-26.094;27.994;2023-04-15T00:22:00;4;4;
73973;PMS5003;62336;-26.094;27.994;2023-04-15T00:24:25;5;5;
73973;PMS5003;62336;-26.094;27.994;2023-04-15T00:26:51;1;1;
73973;PMS5003;62336;-26.094;27.994;2023-04-15T00:29:16;4;4;
73973;PMS5003;62336;-26.094;27.994;2023-04-15T00:31:41;2;2;
73973;PMS5003;62336;-26.094;27.994;2023-04-15T00:34:06;2;2;
73973;PMS5003;62336;-26.094;27.994;2023-04-15T00:36:31;1;1;
73973;PMS5003;62336;-26.094;27.994;2023-04-15T00:38:56;2;2;
73973;PMS5003;62336;-26.094;27.994;2023-04-15T00:41:21;3;1;
73973;PMS5003;62336;-26.094;27.994;2023-04-15T00:43:47;2;2;
73973;PMS5003;62336;-26.094;27.994;2023-04-15T00:46:12;1;1;
73973;PMS5003;62336;-26.094;27.994;2023-04-15T00:48:36;1;1;
73973;PMS5003;62336;-26.094;27.994;2023-04-15T00:51:02;1;1;
73973;PMS5003;62336;-26.094;27.994;2023-04-15T00:53:26;1;1;
73973;PMS5003;62336;-26.094;27.994;2023-04-15T00:55:52;1;1;
73973;PMS5003;62336;-26.094;27.994;2023-04-15T00:58:18;2;1;
73973;PMS5003;62336;-26.094;27.994;2023-04-15T01:00:44;1;1;
73973;PMS5003;62336;-26.094;27.994;2023-04-15T01:03:10;2;1;
73973;PMS5003;62336;-26.094;27.994;2023-04-15T01:05:35;2;2;
73973;PMS5003;62336;-26.094;27.994;2023-04-15T01:08:01;1;1;
73973;PMS5003;62336;-26.094;27.994;2023-04-15T01:10:27;0;0;
73973;PMS5003;62336;-26.094;27.994;2023-04-15T01:12:52;1;1;
73973;PMS5003;62336;-26.094;27.994;2023-04-15T01:15:18;1;1;
73973;PMS5003;62336;-26.094;27.994;2023-04-15T01:17:43;2;1;
73973;PMS5003;62336;-26.094;27.994;2023-04-15T01:20:09;1;1;
73973;PMS5003;62336;-26.094;27.994;2023-04-15T01:22:34;3;3;
73973;PMS5003;62336;-26.094;27.994;2023-04-15T01:25:00;1;1;
73973;PMS5003;62336;-26.094;27.994;2023-04-15T01:27:25;1;1;
73973;PMS5003;62336;-26.094;27.994;2023-04-15T01:29:51;1;1;
73973;PMS5003;62336;-26.094;27.994;2023-04-15T01:32:17;3;2;
73973;PMS5003;62336;-26.094;27.994;2023-04-15T01:34:43;1;1;
73973;PMS5003;62336;-26.094;27.994;2023-04-15T01:37:08;3;3;
73973;PMS5003;62336;-26.094;27.994;2023-04-15T01:39:34;3;2;
73973;PMS5003;62336;-26.094;27.994;2023-04-15T01:42:00;4;4;
73973;PMS5003;62336;-26.094;27.994;2023-04-15T01:44:26;3;3;
73973;PMS5003;62336;-26.094;27.994;2023-04-15T01:46:52;4;3;
73973;PMS5003;62336;-26.094;27.994;2023-04-15T01:49:17;4;4;
73973;PMS5003;62336;-26.094;27.994;2023-04-15T01:54:07;5;4;
73973;PMS5003;62336;-26.094;27.994;2023-04-15T01:56:32;5;4;
73973;PMS5003;62336;-26.094;27.994;2023-04-15T01:58:58;4;3;
73973;PMS5003;62336;-26.094;27.994;2023-04-15T02:01:22;3;3;
73973;PMS5003;62336;-26.094;27.994;2023-04-15T02:03:48;3;3;
73973;PMS5003;62336;-26.094;27.994;2023-04-15T02:06:12;5;5;
73973;PMS5003;62336;-26.094;27.994;2023-04-15T02:08:37;4;4;
73973;PMS5003;62336;-26.094;27.994;2023-04-15T02:11:03;5;5;
73973;PMS5003;62336;-26.094;27.994;2023-04-15T02:13:27;5;5;
73973;PMS5003;62336;-26.094;27.994;2023-04-15T02:15:53;5;4;
73973;PMS5003;62336;-26.094;27.994;2023-04-15T02:18:18;4;4;
73973;PMS5003;62336;-26.094;27.994;2023-04-15T02:20:43;4;4;
73973;PMS5003;62336;-26.094;27.994;2023-04-15T02:23:08;7;6;
73973;PMS5003;62336;-26.094;27.994;2023-04-15T02:25:33;6;4;
73973;PMS5003;62336;-26.094;27.994;2023-04-15T02:27:58;3;3;
73973;PMS5003;62336;-26.094;27.994;2023-04-15T02:30:24;4;4;
73973;PMS5003;62336;-26.094;27.994;2023-04-15T02:32:48;5;4;
73973;PMS5003;62336;-26.094;27.994;2023-04-15T02:35:13;5;4;
73973;PMS5003;62336;-26.094;27.994;2023-04-15T02:37:38;4;4;
73973;PMS5003;62336;-26.094;27.994;2023-04-15T02:40:04;5;5;
73973;PMS5003;62336;-26.094;27.994;2023-04-15T02:42:29;5;4;
73973;PMS5003;62336;-26.094;27.994;2023-04-15T02:44:55;4;3;
73973;PMS5003;62336;-26.094;27.994;2023-04-15T02:47:21;5;4;
73973;PMS5003;62336;-26.094;27.994;2023-04-15T02:49:46;3;3;
73973;PMS5003;62336;-26.094;27.994;2023-04-15T02:52:11;5;5;
73973;PMS5003;62336;-26.094;27.994;2023-04-15T02:54:36;4;4;
73973;PMS5003;62336;-26.094;27.994;2023-04-15T02:57:01;7;6;
73973;PMS5003;62336;-26.094;27.994;2023-04-15T02:59:26;8;7;
73973;PMS5003;62336;-26.094;27.994;2023-04-15T03:01:51;4;4;
73973;PMS5003;62336;-26.094;27.994;2023-04-15T03:04:17;5;4;
73973;PMS5003;62336;-26.094;27.994;2023-04-15T03:06:42;6;6;
73973;PMS5003;62336;-26.094;27.994;2023-04-15T03:09:07;5;5;
73973;PMS5003;62336;-26.094;27.994;2023-04-15T03:11:32;6;6;
73973;PMS5003;62336;-26.094;27.994;2023-04-15T03:13:57;5;5;
73973;PMS5003;62336;-26.094;27.994;2023-04-15T03:16:23;7;7;
73973;PMS5003;62336;-26.094;27.994;2023-04-15T03:18:48;6;6;
73973;PMS5003;62336;-26.094;27.994;2023-04-15T03:21:13;7;7;
73973;PMS5003;62336;-26.094;27.994;2023-04-15T03:23:38;8;8;
73973;PMS5003;62336;-26.094;27.994;2023-04-15T03:26:03;4;4;
73973;PMS5003;62336;-26.094;27.994;2023-04-15T03:28:28;6;6;
73973;PMS5003;62336;-26.094;27.994;2023-04-15T03:30:54;5;5;
73973;PMS5003;62336;-26.094;27.994;2023-04-15T03:33:19;6;6;
73973;PMS5003;62336;-26.094;27.994;2023-04-15T03:35:44;9;8;
73973;PMS5003;62336;-26.094;27.994;2023-04-15T03:38:09;9;9;
73973;PMS5003;62336;-26.094;27.994;2023-04-15T03:40:35;8;8;
73973;PMS5003;62336;-26.094;27.994;2023-04-15T03:43:00;7;7;
73973;PMS5003;62336;-26.094;27.994;2023-04-15T03:45:25;10;8;
73973;PMS5003;62336;-26.094;27.994;2023-04-15T03:47:50;10;10;
73973;PMS5003;62336;-26.094;27.994;2023-04-15T03:50:15;10;9;
73973;PMS5003;62336;-26.094;27.994;2023-04-15T03:52:41;11;10;
73973;PMS5003;62336;-26.094;27.994;2023-04-15T03:55:06;8;8;
73973;PMS5003;62336;-26.094;27.994;2023-04-15T03:57:31;9;8;
73973;PMS5003;62336;-26.094;27.994;2023-04-15T03:59:56;8;8;
73973;PMS5003;62336;-26.094;27.994;2023-04-15T04:02:21;8;7;
73973;PMS5003;62336;-26.094;27.994;2023-04-15T04:04:46;9;9;
73973;PMS5003;62336;-26.094;27.994;2023-04-15T04:07:14;10;8;
73973;PMS5003;62336;-26.094;27.994;2023-04-15T04:09:36;9;8;
73973;PMS5003;62336;-26.094;27.994;2023-04-15T04:12:01;10;8;
73973;PMS5003;62336;-26.094;27.994;2023-04-15T04:14:26;11;10;
73973;PMS5003;62336;-26.094;27.994;2023-04-15T04:16:51;16;15;
73973;PMS5003;62336;-26.094;27.994;2023-04-15T04:19:17;9;9;
73973;PMS5003;62336;-26.094;27.994;2023-04-15T04:21:42;9;9;
73973;PMS5003;62336;-26.094;27.994;2023-04-15T04:24:07;9;9;
73973;PMS5003;62336;-26.094;27.994;2023-04-15T04:26:33;10;9;
73973;PMS5003;62336;-26.094;27.994;2023-04-15T04:28:58;8;7;
73973;PMS5003;62336;-26.094;27.994;2023-04-15T04:31:23;9;9;
73973;PMS5003;62336;-26.094;27.994;2023-04-15T04:33:49;11;10;
73973;PMS5003;62336;-26.094;27.994;2023-04-15T04:36:13;10;10;
73973;PMS5003;62336;-26.094;27.994;2023-04-15T04:38:38;11;10;
73973;PMS5003;62336;-26.094;27.994;2023-04-15T04:41:04;15;13;
73973;PMS5003;62336;-26.094;27.994;2023-04-15T05:55:13;17;17;
73973;PMS5003;62336;-26.094;27.994;2023-04-15T05:57:37;28;26;
73973;PMS5003;62336;-26.094;27.994;2023-04-15T06:00:03;30;29;
73973;PMS5003;62336;-26.094;27.994;2023-04-15T06:02:28;27;25;
73973;PMS5003;62336;-26.094;27.994;2023-04-15T06:04:53;30;27;
73973;PMS5003;62336;-26.094;27.994;2023-04-15T06:07:20;34;29;
73973;PMS5003;62336;-26.094;27.994;2023-04-15T06:09:44;31;27;
73973;PMS5003;62336;-26.094;27.994;2023-04-15T06:12:10;33;32;
73973;PMS5003;62336;-26.094;27.994;2023-04-15T06:14:35;46;41;
73973;PMS5003;62336;-26.094;27.994;2023-04-15T06:17:02;31;27;
73973;PMS5003;62336;-26.094;27.994;2023-04-15T06:19:26;31;29;
73973;PMS5003;62336;-26.094;27.994;2023-04-15T06:21:51;29;25;
73973;PMS5003;62336;-26.094;27.994;2023-04-15T06:24:17;33;32;
73973;PMS5003;62336;-26.094;27.994;2023-04-15T06:26:42;35;31;
73973;PMS5003;62336;-26.094;27.994;2023-04-15T06:29:08;35;31;
73973;PMS5003;62336;-26.094;27.994;2023-04-15T06:31:33;37;32;
73973;PMS5003;62336;-26.094;27.994;2023-04-15T06:33:58;36;32;
73973;PMS5003;62336;-26.094;27.994;2023-04-15T06:36:23;31;30;
73973;PMS5003;62336;-26.094;27.994;2023-04-15T06:38:48;37;31;
73973;PMS5003;62336;-26.094;27.994;2023-04-15T06:41:14;34;31;
73973;PMS5003;62336;-26.094;27.994;2023-04-15T06:43:40;35;34;
73973;PMS5003;62336;-26.094;27.994;2023-04-15T06:46:05;40;34;
73973;PMS5003;62336;-26.094;27.994;2023-04-15T06:48:30;42;36;
73973;PMS5003;62336;-26.094;27.994;2023-04-15T06:50:56;39;37;
73973;PMS5003;62336;-26.094;27.994;2023-04-15T06:53:23;36;36;
73973;PMS5003;62336;-26.094;27.994;2023-04-15T06:55:47;32;31;
73973;PMS5003;62336;-26.094;27.994;2023-04-15T06:58:12;37;36;
73973;PMS5003;62336;-26.094;27.994;2023-04-15T07:00:37;37;35;
73973;PMS5003;62336;-26.094;27.994;2023-04-15T07:03:02;44;40;
73973;PMS5003;62336;-26.094;27.994;2023-04-15T07:05:27;44;42;
73973;PMS5003;62336;-26.094;27.994;2023-04-15T07:07:53;40;39;
73973;PMS5003;62336;-26.094;27.994;2023-04-15T07:10:19;44;41;
73973;PMS5003;62336;-26.094;27.994;2023-04-15T07:12:44;42;39;
73973;PMS5003;62336;-26.094;27.994;2023-04-15T07:15:11;41;41;
73973;PMS5003;62336;-26.094;27.994;2023-04-15T07:17:35;47;42;
73973;PMS5003;62336;-26.094;27.994;2023-04-15T07:20:01;43;40;
73973;PMS5003;62336;-26.094;27.994;2023-04-15T07:22:26;45;43;
73973;PMS5003;62336;-26.094;27.994;2023-04-15T07:24:52;44;42;
73973;PMS5003;62336;-26.094;27.994;2023-04-15T07:27:17;46;43;
73973;PMS5003;62336;-26.094;27.994;2023-04-15T07:29:43;49;46;
73973;PMS5003;62336;-26.094;27.994;2023-04-15T07:32:08;54;49;
73973;PMS5003;62336;-26.094;27.994;2023-04-15T07:34:35;55;51;
73973;PMS5003;62336;-26.094;27.994;2023-04-15T07:36:59;62;55;
73973;PMS5003;62336;-26.094;27.994;2023-04-15T07:39:24;53;49;
73973;PMS5003;62336;-26.094;27.994;2023-04-15T07:41:49;51;49;
73973;PMS5003;62336;-26.094;27.994;2023-04-15T07:44:15;50;50;
73973;PMS5003;62336;-26.094;27.994;2023-04-15T07:46:41;53;52;
73973;PMS5003;62336;-26.094;27.994;2023-04-15T07:49:08;60;52;
73973;PMS5003;62336;-26.094;27.994;2023-04-15T07:51:32;59;54;
73973;PMS5003;62336;-26.094;27.994;2023-04-15T07:53:57;56;51;
73973;PMS5003;62336;-26.094;27.994;2023-04-15T07:56:22;61;57;
73973;PMS5003;62336;-26.094;27.994;2023-04-15T07:58:48;59;57;
73973;PMS5003;62336;-26.094;27.994;2023-04-15T08:01:13;55;54;
73973;PMS5003;62336;-26.094;27.994;2023-04-15T08:03:38;57;54;
73973;PMS5003;62336;-26.094;27.994;2023-04-15T08:06:04;52;50;
73973;PMS5003;62336;-26.094;27.994;2023-04-15T08:08:30;61;57;
73973;PMS5003;62336;-26.094;27.994;2023-04-15T08:10:55;59;52;
73973;PMS5003;62336;-26.094;27.994;2023-04-15T08:13:20;56;51;
73973;PMS5003;62336;-26.094;27.994;2023-04-15T08:15:45;66;60;
73973;PMS5003;62336;-26.094;27.994;2023-04-15T08:18:11;50;47;
73973;PMS5003;62336;-26.094;27.994;2023-04-15T08:20:36;62;58;
73973;PMS5003;62336;-26.094;27.994;2023-04-15T08:23:01;53;50;
73973;PMS5003;62336;-26.094;27.994;2023-04-15T08:25:28;57;55;
73973;PMS5003;62336;-26.094;27.994;2023-04-15T08:27:54;61;57;
73973;PMS5003;62336;-26.094;27.994;2023-04-15T08:30:18;55;54;
73973;PMS5003;62336;-26.094;27.994;2023-04-15T08:32:44;71;66;
73973;PMS5003;62336;-26.094;27.994;2023-04-15T08:35:09;65;58;
73973;PMS5003;62336;-26.094;27.994;2023-04-15T08:37:36;59;52;
73973;PMS5003;62336;-26.094;27.994;2023-04-15T08:40:00;58;54;
73973;PMS5003;62336;-26.094;27.994;2023-04-15T08:42:30;64;63;
73973;PMS5003;62336;-26.094;27.994;2023-04-15T08:44:51;60;56;
73973;PMS5003;62336;-26.094;27.994;2023-04-15T08:47:16;47;43;
73973;PMS5003;62336;-26.094;27.994;2023-04-15T08:49:41;51;46;
73973;PMS5003;62336;-26.094;27.994;2023-04-15T08:52:07;55;50;
73973;PMS5003;62336;-26.094;27.994;2023-04-15T08:54:32;54;52;
73973;PMS5003;62336;-26.094;27.994;2023-04-15T08:56:58;56;49;
73973;PMS5003;62336;-26.094;27.994;2023-04-15T08:59:22;55;50;
73973;PMS5003;62336;-26.094;27.994;2023-04-15T09:01:49;50;46;
73973;PMS5003;62336;-26.094;27.994;2023-04-15T09:04:14;50;48;
73973;PMS5003;62336;-26.094;27.994;2023-04-15T09:06:39;54;50;
73973;PMS5003;62336;-26.094;27.994;2023-04-15T09:09:04;48;47;
73973;PMS5003;62336;-26.094;27.994;2023-04-15T09:11:30;47;46;
73973;PMS5003;62336;-26.094;27.994;2023-04-15T09:13:54;47;42;
73973;PMS5003;62336;-26.094;27.994;2023-04-15T09:16:20;45;41;
73973;PMS5003;62336;-26.094;27.994;2023-04-15T09:18:46;49;46;
73973;PMS5003;62336;-26.094;27.994;2023-04-15T09:21:12;51;46;
73973;PMS5003;62336;-26.094;27.994;2023-04-15T09:23:37;47;46;
73973;PMS5003;62336;-26.094;27.994;2023-04-15T09:26:02;48;40;
73973;PMS5003;62336;-26.094;27.994;2023-04-15T09:28:28;44;40;
73973;PMS5003;62336;-26.094;27.994;2023-04-15T09:30:55;40;37;
73973;PMS5003;62336;-26.094;27.994;2023-04-15T09:33:20;46;39;
73973;PMS5003;62336;-26.094;27.994;2023-04-15T09:35:48;48;45;
73973;PMS5003;62336;-26.094;27.994;2023-04-15T09:38:10;41;39;
73973;PMS5003;62336;-26.094;27.994;2023-04-15T09:40:35;37;36;
73973;PMS5003;62336;-26.094;27.994;2023-04-15T09:43:00;40;36;
73973;PMS5003;62336;-26.094;27.994;2023-04-15T09:45:26;42;38;
73973;PMS5003;62336;-26.094;27.994;2023-04-15T09:47:51;38;35;
73973;PMS5003;62336;-26.094;27.994;2023-04-15T09:50:17;45;38;
73973;PMS5003;62336;-26.094;27.994;2023-04-15T09:52:42;37;35;
73973;PMS5003;62336;-26.094;27.994;2023-04-15T09:55:14;32;31;
73973;PMS5003;62336;-26.094;27.994;2023-04-15T09:57:33;47;41;
73973;PMS5003;62336;-26.094;27.994;2023-04-15T09:59:57;33;32;
73973;PMS5003;62336;-26.094;27.994;2023-04-15T10:02:23;32;29;
73973;PMS5003;62336;-26.094;27.994;2023-04-15T10:04:48;38;32;
73973;PMS5003;62336;-26.094;27.994;2023-04-15T10:07:13;31;30;
73973;PMS5003;62336;-26.094;27.994;2023-04-15T10:09:39;37;35;
73973;PMS5003;62336;-26.094;27.994;2023-04-15T10:12:05;28;27;
73973;PMS5003;62336;-26.094;27.994;2023-04-15T10:14:31;32;32;
73973;PMS5003;62336;-26.094;27.994;2023-04-15T10:16:56;34;33;
73973;PMS5003;62336;-26.094;27.994;2023-04-15T10:19:21;30;29;
73973;PMS5003;62336;-26.094;27.994;2023-04-15T10:21:46;31;28;
73973;PMS5003;62336;-26.094;27.994;2023-04-15T10:24:12;33;29;
73973;PMS5003;62336;-26.094;27.994;2023-04-15T10:26:37;33;31;
73973;PMS5003;62336;-26.094;27.994;2023-04-15T10:29:02;33;31;
73973;PMS5003;62336;-26.094;27.994;2023-04-15T10:31:28;31;30;
73973;PMS5003;62336;-26.094;27.994;2023-04-15T10:33:53;43;36;
73973;PMS5003;62336;-26.094;27.994;2023-04-15T10:36:18;34;33;
73973;PMS5003;62336;-26.094;27.994;2023-04-15T10:38:44;30;28;
73973;PMS5003;62336;-26.094;27.994;2023-04-15T10:41:15;28;27;
73973;PMS5003;62336;-26.094;27.994;2023-04-15T10:43:35;34;29;
73973;PMS5003;62336;-26.094;27.994;2023-04-15T10:46:00;32;31;
73973;PMS5003;62336;-26.094;27.994;2023-04-15T10:48:25;34;29;
73973;PMS5003;62336;-26.094;27.994;2023-04-15T10:50:55;27;27;
73973;PMS5003;62336;-26.094;27.994;2023-04-15T10:55:42;33;29;
73973;PMS5003;62336;-26.094;27.994;2023-04-15T10:58:08;29;29;
73973;PMS5003;62336;-26.094;27.994;2023-04-15T11:00:33;26;26;
73973;PMS5003;62336;-26.094;27.994;2023-04-15T11:02:59;31;30;
73973;PMS5003;62336;-26.094;27.994;2023-04-15T11:07:52;33;32;
73973;PMS5003;62336;-26.094;27.994;2023-04-15T11:12:40;30;27;
73973;PMS5003;62336;-26.094;27.994;2023-04-15T11:17:31;30;28;
73973;PMS5003;62336;-26.094;27.994;2023-04-15T11:19:56;33;32;
73973;PMS5003;62336;-26.094;27.994;2023-04-15T11:22:22;34;31;
73973;PMS5003;62336;-26.094;27.994;2023-04-15T11:24:47;33;31;
73973;PMS5003;62336;-26.094;27.994;2023-04-15T11:29:38;34;30;
73973;PMS5003;62336;-26.094;27.994;2023-04-15T11:32:05;32;29;
73973;PMS5003;62336;-26.094;27.994;2023-04-15T11:34:29;29;27;
73973;PMS5003;62336;-26.094;27.994;2023-04-15T11:36:57;31;30;
73973;PMS5003;62336;-26.094;27.994;2023-04-15T11:39:21;38;33;
73973;PMS5003;62336;-26.094;27.994;2023-04-15T11:41:46;34;32;
73973;PMS5003;62336;-26.094;27.994;2023-04-15T11:44:15;33;31;
73973;PMS5003;62336;-26.094;27.994;2023-04-15T11:46:37;29;27;
73973;PMS5003;62336;-26.094;27.994;2023-04-15T11:49:03;32;30;
73973;PMS5003;62336;-26.094;27.994;2023-04-15T11:51:31;30;29;
73973;PMS5003;62336;-26.094;27.994;2023-04-15T11:53:54;34;32;
73973;PMS5003;62336;-26.094;27.994;2023-04-15T11:56:20;33;30;
73973;PMS5003;62336;-26.094;27.994;2023-04-15T11:58:45;28;28;
73973;PMS5003;62336;-26.094;27.994;2023-04-15T12:01:10;30;28;
73973;PMS5003;62336;-26.094;27.994;2023-04-15T12:03:36;21;21;
73973;PMS5003;62336;-26.094;27.994;2023-04-15T12:06:03;28;27;
73973;PMS5003;62336;-26.094;27.994;2023-04-15T12:08:33;30;29;
73973;PMS5003;62336;-26.094;27.994;2023-04-15T12:13:18;26;26;
73973;PMS5003;62336;-26.094;27.994;2023-04-15T12:15:44;28;26;
73973;PMS5003;62336;-26.094;27.994;2023-04-15T12:27:50;40;35;
73973;PMS5003;62336;-26.094;27.994;2023-04-15T12:30:15;35;32;
73973;PMS5003;62336;-26.094;27.994;2023-04-15T12:32:40;35;32;
73973;PMS5003;62336;-26.094;27.994;2023-04-15T12:35:06;37;33;
73973;PMS5003;62336;-26.094;27.994;2023-04-15T12:37:31;36;34;
73973;PMS5003;62336;-26.094;27.994;2023-04-15T12:39:56;32;30;
73973;PMS5003;62336;-26.094;27.994;2023-04-15T12:42:22;33;32;
73973;PMS5003;62336;-26.094;27.994;2023-04-15T12:44:48;27;25;
73973;PMS5003;62336;-26.094;27.994;2023-04-15T12:47:13;30;29;
73973;PMS5003;62336;-26.094;27.994;2023-04-15T12:49:38;35;34;
73973;PMS5003;62336;-26.094;27.994;2023-04-15T12:52:04;33;28;
73973;PMS5003;62336;-26.094;27.994;2023-04-15T12:54:29;34;34;
73973;PMS5003;62336;-26.094;27.994;2023-04-15T12:56:55;39;32;
73973;PMS5003;62336;-26.094;27.994;2023-04-15T12:59:21;33;32;
73973;PMS5003;62336;-26.094;27.994;2023-04-15T13:01:47;27;26;
73973;PMS5003;62336;-26.094;27.994;2023-04-15T13:04:12;26;26;
73973;PMS5003;62336;-26.094;27.994;2023-04-15T13:06:37;28;27;
73973;PMS5003;62336;-26.094;27.994;2023-04-15T13:09:03;34;33;
73973;PMS5003;62336;-26.094;27.994;2023-04-15T13:11:29;33;32;
73973;PMS5003;62336;-26.094;27.994;2023-04-15T13:13:55;28;26;
73973;PMS5003;62336;-26.094;27.994;2023-04-15T13:16:20;39;34;
73973;PMS5003;62336;-26.094;27.994;2023-04-15T13:18:45;31;31;
73973;PMS5003;62336;-26.094;27.994;2023-04-15T13:21:10;31;29;
73973;PMS5003;62336;-26.094;27.994;2023-04-15T13:23:35;39;34;
73973;PMS5003;62336;-26.094;27.994;2023-04-15T13:26:00;36;34;
73973;PMS5003;62336;-26.094;27.994;2023-04-15T13:28:25;37;35;
73973;PMS5003;62336;-26.094;27.994;2023-04-15T13:30:50;33;32;
73973;PMS5003;62336;-26.094;27.994;2023-04-15T13:33:16;33;30;
73973;PMS5003;62336;-26.094;27.994;2023-04-15T13:35:42;33;32;
73973;PMS5003;62336;-26.094;27.994;2023-04-15T13:38:07;33;31;
73973;PMS5003;62336;-26.094;27.994;2023-04-15T13:40:33;28;28;
73973;PMS5003;62336;-26.094;27.994;2023-04-15T13:42:58;27;26;
73973;PMS5003;62336;-26.094;27.994;2023-04-15T13:45:24;37;34;
73973;PMS5003;62336;-26.094;27.994;2023-04-15T13:47:49;32;30;
73973;PMS5003;62336;-26.094;27.994;2023-04-15T13:50:15;30;29;
73973;PMS5003;62336;-26.094;27.994;2023-04-15T13:52:40;32;30;
73973;PMS5003;62336;-26.094;27.994;2023-04-15T13:55:06;29;28;
73973;PMS5003;62336;-26.094;27.994;2023-04-15T13:57:31;28;26;
73973;PMS5003;62336;-26.094;27.994;2023-04-15T13:59:57;24;23;
73973;PMS5003;62336;-26.094;27.994;2023-04-15T14:02:22;27;22;
73973;PMS5003;62336;-26.094;27.994;2023-04-15T14:04:48;29;25;
73973;PMS5003;62336;-26.094;27.994;2023-04-15T14:07:13;26;22;
73973;PMS5003;62336;-26.094;27.994;2023-04-15T14:09:39;25;24;
73973;PMS5003;62336;-26.094;27.994;2023-04-15T14:12:04;26;25;
73973;PMS5003;62336;-26.094;27.994;2023-04-15T14:14:29;24;23;
73973;PMS5003;62336;-26.094;27.994;2023-04-15T14:16:54;21;20;
73973;PMS5003;62336;-26.094;27.994;2023-04-15T14:19:19;23;22;
73973;PMS5003;62336;-26.094;27.994;2023-04-15T14:21:45;21;20;
73973;PMS5003;62336;-26.094;27.994;2023-04-15T14:24:10;23;22;
73973;PMS5003;62336;-26.094;27.994;2023-04-15T14:26:36;26;25;
73973;PMS5003;62336;-26.094;27.994;2023-04-15T14:29:01;19;19;
73973;PMS5003;62336;-26.094;27.994;2023-04-15T14:31:26;20;20;
73973;PMS5003;62336;-26.094;27.994;2023-04-15T14:33:51;19;19;
73973;PMS5003;62336;-26.094;27.994;2023-04-15T14:36:17;27;24;
73973;PMS5003;62336;-26.094;27.994;2023-04-15T14:38:42;23;23;
73973;PMS5003;62336;-26.094;27.994;2023-04-15T14:41:08;18;18;
73973;PMS5003;62336;-26.094;27.994;2023-04-15T14:43:33;19;19;
73973;PMS5003;62336;-26.094;27.994;2023-04-15T14:45:59;19;19;
73973;PMS5003;62336;-26.094;27.994;2023-04-15T14:48:25;23;21;
73973;PMS5003;62336;-26.094;27.994;2023-04-15T14:50:50;23;22;
73973;PMS5003;62336;-26.094;27.994;2023-04-15T14:53:15;25;24;
73973;PMS5003;62336;-26.094;27.994;2023-04-15T14:55:40;22;21;
73973;PMS5003;62336;-26.094;27.994;2023-04-15T14:58:06;22;21;
73973;PMS5003;62336;-26.094;27.994;2023-04-15T15:00:31;24;22;
73973;PMS5003;62336;-26.094;27.994;2023-04-15T15:02:57;23;22;
73973;PMS5003;62336;-26.094;27.994;2023-04-15T15:05:22;21;20;
73973;PMS5003;62336;-26.094;27.994;2023-04-15T15:07:48;18;18;
73973;PMS5003;62336;-26.094;27.994;2023-04-15T15:10:12;21;18;
73973;PMS5003;62336;-26.094;27.994;2023-04-15T15:12:38;28;28;
73973;PMS5003;62336;-26.094;27.994;2023-04-15T15:15:04;32;32;
73973;PMS5003;62336;-26.094;27.994;2023-04-15T15:17:29;35;34;
73973;PMS5003;62336;-26.094;27.994;2023-04-15T15:19:54;30;27;
73973;PMS5003;62336;-26.094;27.994;2023-04-15T15:22:19;25;25;
73973;PMS5003;62336;-26.094;27.994;2023-04-15T15:24:45;41;38;
73973;PMS5003;62336;-26.094;27.994;2023-04-15T15:27:10;35;33;
73973;PMS5003;62336;-26.094;27.994;2023-04-15T15:29:36;30;29;
73973;PMS5003;62336;-26.094;27.994;2023-04-15T15:32:00;25;25;
73973;PMS5003;62336;-26.094;27.994;2023-04-15T15:34:25;29;27;
73973;PMS5003;62336;-26.094;27.994;2023-04-15T15:36:51;26;24;
73973;PMS5003;62336;-26.094;27.994;2023-04-15T15:39:17;43;42;
73973;PMS5003;62336;-26.094;27.994;2023-04-15T15:41:43;39;36;
73973;PMS5003;62336;-26.094;27.994;2023-04-15T15:44:08;28;27;
73973;PMS5003;62336;-26.094;27.994;2023-04-15T15:46:34;30;28;
73973;PMS5003;62336;-26.094;27.994;2023-04-15T15:49:01;31;28;
73973;PMS5003;62336;-26.094;27.994;2023-04-15T15:51:25;25;25;
73973;PMS5003;62336;-26.094;27.994;2023-04-15T15:53:51;26;25;
73973;PMS5003;62336;-26.094;27.994;2023-04-15T15:56:17;20;20;
73973;PMS5003;62336;-26.094;27.994;2023-04-15T15:58:42;23;22;
73973;PMS5003;62336;-26.094;27.994;2023-04-15T16:01:08;20;19;
73973;PMS5003;62336;-26.094;27.994;2023-04-15T16:03:33;26;23;
73973;PMS5003;62336;-26.094;27.994;2023-04-15T16:05:59;24;22;
73973;PMS5003;62336;-26.094;27.994;2023-04-15T16:08:24;24;23;
73973;PMS5003;62336;-26.094;27.994;2023-04-15T16:10:49;26;25;
73973;PMS5003;62336;-26.094;27.994;2023-04-15T16:13:14;27;26;
73973;PMS5003;62336;-26.094;27.994;2023-04-15T16:15:40;27;24;
73973;PMS5003;62336;-26.094;27.994;2023-04-15T16:18:05;28;26;
73973;PMS5003;62336;-26.094;27.994;2023-04-15T16:20:31;31;30;
73973;PMS5003;62336;-26.094;27.994;2023-04-15T16:22:56;37;36;
73973;PMS5003;62336;-26.094;27.994;2023-04-15T16:25:22;29;28;
73973;PMS5003;62336;-26.094;27.994;2023-04-15T16:27:47;29;29;
73973;PMS5003;62336;-26.094;27.994;2023-04-15T16:30:13;30;29;
73973;PMS5003;62336;-26.094;27.994;2023-04-15T16:32:38;31;29;
73973;PMS5003;62336;-26.094;27.994;2023-04-15T16:35:03;34;32;
73973;PMS5003;62336;-26.094;27.994;2023-04-15T16:37:28;34;33;
73973;PMS5003;62336;-26.094;27.994;2023-04-15T16:39:54;34;32;
73973;PMS5003;62336;-26.094;27.994;2023-04-15T16:42:20;38;37;
73973;PMS5003;62336;-26.094;27.994;2023-04-15T16:44:45;32;29;
73973;PMS5003;62336;-26.094;27.994;2023-04-15T16:47:10;34;33;
73973;PMS5003;62336;-26.094;27.994;2023-04-15T16:49:36;39;38;
73973;PMS5003;62336;-26.094;27.994;2023-04-15T16:52:01;39;39;
73973;PMS5003;62336;-26.094;27.994;2023-04-15T16:54:27;50;46;
73973;PMS5003;62336;-26.094;27.994;2023-04-15T16:56:52;47;43;
73973;PMS5003;62336;-26.094;27.994;2023-04-15T16:59:17;42;38;
73973;PMS5003;62336;-26.094;27.994;2023-04-15T17:01:42;42;37;
73973;PMS5003;62336;-26.094;27.994;2023-04-15T17:04:08;42;39;
73973;PMS5003;62336;-26.094;27.994;2023-04-15T17:06:34;44;39;
73973;PMS5003;62336;-26.094;27.994;2023-04-15T17:08:59;41;36;
73973;PMS5003;62336;-26.094;27.994;2023-04-15T17:11:25;37;34;
73973;PMS5003;62336;-26.094;27.994;2023-04-15T17:13:50;31;30;
73973;PMS5003;62336;-26.094;27.994;2023-04-15T17:16:16;34;33;
73973;PMS5003;62336;-26.094;27.994;2023-04-15T17:18:41;35;34;